sensor_id;sensor_type;location;lat;lon;timestamp;temperature;humidity
75380;HTU21D;65641;44.714;37.756;2023-03-26T00:00:48;13.31;75.66
75380;HTU21D;65641;44.714;37.756;2023-03-26T00:01:52;13.29;75.65
75380;HTU21D;65641;44.714;37.756;2023-03-26T00:02:55;13.29;75.64
75380;HTU21D;65641;44.714;37.756;2023-03-26T00:03:59;13.27;75.66
75380;HTU21D;65641;44.714;37.756;2023-03-26T00:05:02;13.27;75.65
75380;HTU21D;65641;44.714;37.756;2023-03-26T00:06:08;13.27;75.66
75380;HTU21D;65641;44.714;37.756;2023-03-26T00:07:12;13.24;75.67
75380;HTU21D;65641;44.714;37.756;2023-03-26T00:08:15;13.25;75.68
75380;HTU21D;65641;44.714;37.756;2023-03-26T00:09:19;13.24;75.70
75380;HTU21D;65641;44.714;37.756;2023-03-26T00:10:22;13.22;75.72
75380;HTU21D;65641;44.714;37.756;2023-03-26T00:11:27;13.24;75.72
75380;HTU21D;65641;44.714;37.756;2023-03-26T00:12:30;13.22;75.73
75380;HTU21D;65641;44.714;37.756;2023-03-26T00:13:34;13.22;75.73
75380;HTU21D;65641;44.714;37.756;2023-03-26T00:14:37;13.22;75.73
75380;HTU21D;65641;44.714;37.756;2023-03-26T00:15:42;13.21;75.74
75380;HTU21D;65641;44.714;37.756;2023-03-26T00:16:45;13.20;75.75
75380;HTU21D;65641;44.714;37.756;2023-03-26T00:17:49;13.20;75.75
75380;HTU21D;65641;44.714;37.756;2023-03-26T00:18:53;13.19;75.76
75380;HTU21D;65641;44.714;37.756;2023-03-26T00:19:56;13.20;75.76
75380;HTU21D;65641;44.714;37.756;2023-03-26T00:21:03;13.18;75.77
75380;HTU21D;65641;44.714;37.756;2023-03-26T00:22:07;13.19;75.76
75380;HTU21D;65641;44.714;37.756;2023-03-26T00:23:12;13.18;75.76
75380;HTU21D;65641;44.714;37.756;2023-03-26T00:24:15;13.18;75.77
75380;HTU21D;65641;44.714;37.756;2023-03-26T00:25:19;13.17;75.75
75380;HTU21D;65641;44.714;37.756;2023-03-26T00:26:23;13.16;75.75
75380;HTU21D;65641;44.714;37.756;2023-03-26T00:27:26;13.15;75.76
75380;HTU21D;65641;44.714;37.756;2023-03-26T00:28:30;13.15;75.74
75380;HTU21D;65641;44.714;37.756;2023-03-26T00:29:33;13.16;75.74
75380;HTU21D;65641;44.714;37.756;2023-03-26T00:30:37;13.14;75.74
75380;HTU21D;65641;44.714;37.756;2023-03-26T00:31:43;13.14;75.74
75380;HTU21D;65641;44.714;37.756;2023-03-26T00:32:48;13.14;75.75
75380;HTU21D;65641;44.714;37.756;2023-03-26T00:33:55;13.11;75.75
75380;HTU21D;65641;44.714;37.756;2023-03-26T00:34:58;13.12;75.73
75380;HTU21D;65641;44.714;37.756;2023-03-26T00:36:07;13.11;75.73
75380;HTU21D;65641;44.714;37.756;2023-03-26T00:37:11;13.11;75.73
75380;HTU21D;65641;44.714;37.756;2023-03-26T00:38:16;13.10;75.73
75380;HTU21D;65641;44.714;37.756;2023-03-26T00:39:20;13.09;75.73
75380;HTU21D;65641;44.714;37.756;2023-03-26T00:40:26;13.09;75.73
75380;HTU21D;65641;44.714;37.756;2023-03-26T00:41:28;13.08;75.72
75380;HTU21D;65641;44.714;37.756;2023-03-26T00:42:33;13.08;75.71
75380;HTU21D;65641;44.714;37.756;2023-03-26T00:43:35;13.09;75.68
75380;HTU21D;65641;44.714;37.756;2023-03-26T00:44:38;13.07;75.68
75380;HTU21D;65641;44.714;37.756;2023-03-26T00:45:41;13.08;75.69
75380;HTU21D;65641;44.714;37.756;2023-03-26T00:46:44;13.06;75.70
75380;HTU21D;65641;44.714;37.756;2023-03-26T00:47:47;13.06;75.69
75380;HTU21D;65641;44.714;37.756;2023-03-26T00:48:50;13.05;75.69
75380;HTU21D;65641;44.714;37.756;2023-03-26T00:49:54;13.05;75.67
75380;HTU21D;65641;44.714;37.756;2023-03-26T00:50:58;13.04;75.66
75380;HTU21D;65641;44.714;37.756;2023-03-26T00:52:00;13.04;75.67
75380;HTU21D;65641;44.714;37.756;2023-03-26T00:53:04;13.04;75.65
75380;HTU21D;65641;44.714;37.756;2023-03-26T00:54:07;13.03;75.65
75380;HTU21D;65641;44.714;37.756;2023-03-26T00:55:11;13.01;75.66
75380;HTU21D;65641;44.714;37.756;2023-03-26T00:56:15;13.01;75.67
75380;HTU21D;65641;44.714;37.756;2023-03-26T00:57:19;13.02;75.66
75380;HTU21D;65641;44.714;37.756;2023-03-26T00:58:37;13.02;75.67
75380;HTU21D;65641;44.714;37.756;2023-03-26T00:59:40;13.00;75.66
75380;HTU21D;65641;44.714;37.756;2023-03-26T01:01:07;12.99;75.65
75380;HTU21D;65641;44.714;37.756;2023-03-26T01:02:12;12.99;75.67
75380;HTU21D;65641;44.714;37.756;2023-03-26T01:03:19;12.99;75.68
75380;HTU21D;65641;44.714;37.756;2023-03-26T01:04:31;12.97;75.69
75380;HTU21D;65641;44.714;37.756;2023-03-26T01:05:42;12.97;75.70
75380;HTU21D;65641;44.714;37.756;2023-03-26T01:06:46;12.97;75.70
75380;HTU21D;65641;44.714;37.756;2023-03-26T01:07:48;12.96;75.70
75380;HTU21D;65641;44.714;37.756;2023-03-26T01:08:52;12.96;75.70
75380;HTU21D;65641;44.714;37.756;2023-03-26T01:09:58;12.96;75.70
75380;HTU21D;65641;44.714;37.756;2023-03-26T01:12:19;12.94;75.68
75380;HTU21D;65641;44.714;37.756;2023-03-26T01:13:24;12.94;75.68
75380;HTU21D;65641;44.714;37.756;2023-03-26T01:14:27;12.96;75.67
75380;HTU21D;65641;44.714;37.756;2023-03-26T01:15:31;12.94;75.65
75380;HTU21D;65641;44.714;37.756;2023-03-26T01:16:48;12.93;75.62
75380;HTU21D;65641;44.714;37.756;2023-03-26T01:17:53;12.93;75.60
75380;HTU21D;65641;44.714;37.756;2023-03-26T01:18:59;12.92;75.55
75380;HTU21D;65641;44.714;37.756;2023-03-26T01:20:10;12.93;75.52
75380;HTU21D;65641;44.714;37.756;2023-03-26T01:21:20;12.92;75.49
75380;HTU21D;65641;44.714;37.756;2023-03-26T01:22:25;12.92;75.46
75380;HTU21D;65641;44.714;37.756;2023-03-26T01:23:39;12.92;75.45
75380;HTU21D;65641;44.714;37.756;2023-03-26T01:24:42;12.92;75.42
75380;HTU21D;65641;44.714;37.756;2023-03-26T01:25:54;12.91;75.41
75380;HTU21D;65641;44.714;37.756;2023-03-26T01:27:08;12.89;75.41
75380;HTU21D;65641;44.714;37.756;2023-03-26T01:28:14;12.89;75.41
75380;HTU21D;65641;44.714;37.756;2023-03-26T01:29:31;12.89;75.41
75380;HTU21D;65641;44.714;37.756;2023-03-26T01:30:39;12.88;75.41
75380;HTU21D;65641;44.714;37.756;2023-03-26T01:33:24;12.86;75.41
75380;HTU21D;65641;44.714;37.756;2023-03-26T01:34:38;12.85;75.38
75380;HTU21D;65641;44.714;37.756;2023-03-26T01:37:11;12.84;75.39
75380;HTU21D;65641;44.714;37.756;2023-03-26T01:39:58;12.81;75.41
75380;HTU21D;65641;44.714;37.756;2023-03-26T01:41:29;12.81;75.41
75380;HTU21D;65641;44.714;37.756;2023-03-26T01:42:36;12.79;75.43
75380;HTU21D;65641;44.714;37.756;2023-03-26T01:43:50;12.81;75.45
75380;HTU21D;65641;44.714;37.756;2023-03-26T01:45:33;12.79;75.47
75380;HTU21D;65641;44.714;37.756;2023-03-26T01:46:29;12.77;75.47
75380;HTU21D;65641;44.714;37.756;2023-03-26T01:47:36;12.78;75.48
75380;HTU21D;65641;44.714;37.756;2023-03-26T01:48:42;12.77;75.48
75380;HTU21D;65641;44.714;37.756;2023-03-26T01:49:45;12.77;75.51
75380;HTU21D;65641;44.714;37.756;2023-03-26T01:50:50;12.77;75.54
75380;HTU21D;65641;44.714;37.756;2023-03-26T01:51:58;12.77;75.53
75380;HTU21D;65641;44.714;37.756;2023-03-26T01:53:01;12.76;75.53
75380;HTU21D;65641;44.714;37.756;2023-03-26T01:54:08;12.77;75.53
75380;HTU21D;65641;44.714;37.756;2023-03-26T01:55:12;12.77;75.52
75380;HTU21D;65641;44.714;37.756;2023-03-26T01:56:27;12.76;75.52
75380;HTU21D;65641;44.714;37.756;2023-03-26T01:57:40;12.76;75.54
75380;HTU21D;65641;44.714;37.756;2023-03-26T02:00:49;12.75;75.53
75380;HTU21D;65641;44.714;37.756;2023-03-26T02:04:14;12.75;75.45
75380;HTU21D;65641;44.714;37.756;2023-03-26T02:05:40;12.76;75.46
75380;HTU21D;65641;44.714;37.756;2023-03-26T02:06:52;12.76;75.43
75380;HTU21D;65641;44.714;37.756;2023-03-26T02:08:08;12.74;75.41
75380;HTU21D;65641;44.714;37.756;2023-03-26T02:09:19;12.74;75.41
75380;HTU21D;65641;44.714;37.756;2023-03-26T02:10:31;12.74;75.40
75380;HTU21D;65641;44.714;37.756;2023-03-26T02:11:36;12.74;75.40
75380;HTU21D;65641;44.714;37.756;2023-03-26T02:12:41;12.75;75.38
75380;HTU21D;65641;44.714;37.756;2023-03-26T02:13:45;12.73;75.37
75380;HTU21D;65641;44.714;37.756;2023-03-26T02:14:48;12.73;75.38
75380;HTU21D;65641;44.714;37.756;2023-03-26T02:16:14;12.72;75.38
75380;HTU21D;65641;44.714;37.756;2023-03-26T02:17:18;12.71;75.39
75380;HTU21D;65641;44.714;37.756;2023-03-26T02:18:27;12.71;75.38
75380;HTU21D;65641;44.714;37.756;2023-03-26T02:19:38;12.73;75.39
75380;HTU21D;65641;44.714;37.756;2023-03-26T02:20:45;12.72;75.39
75380;HTU21D;65641;44.714;37.756;2023-03-26T02:21:48;12.70;75.39
75380;HTU21D;65641;44.714;37.756;2023-03-26T02:22:56;12.70;75.39
75380;HTU21D;65641;44.714;37.756;2023-03-26T02:23:59;12.70;75.40
75380;HTU21D;65641;44.714;37.756;2023-03-26T02:25:11;12.71;75.39
75380;HTU21D;65641;44.714;37.756;2023-03-26T02:26:17;12.70;75.41
75380;HTU21D;65641;44.714;37.756;2023-03-26T02:27:41;12.70;75.43
75380;HTU21D;65641;44.714;37.756;2023-03-26T02:28:46;12.69;75.43
75380;HTU21D;65641;44.714;37.756;2023-03-26T02:29:50;12.71;75.43
75380;HTU21D;65641;44.714;37.756;2023-03-26T02:30:55;12.70;75.40
75380;HTU21D;65641;44.714;37.756;2023-03-26T02:31:59;12.70;75.42
75380;HTU21D;65641;44.714;37.756;2023-03-26T02:33:04;12.69;75.41
75380;HTU21D;65641;44.714;37.756;2023-03-26T02:34:15;12.71;75.41
75380;HTU21D;65641;44.714;37.756;2023-03-26T02:35:26;12.70;75.41
75380;HTU21D;65641;44.714;37.756;2023-03-26T02:36:33;12.71;75.39
75380;HTU21D;65641;44.714;37.756;2023-03-26T02:37:39;12.70;75.41
75380;HTU21D;65641;44.714;37.756;2023-03-26T02:38:50;12.70;75.39
75380;HTU21D;65641;44.714;37.756;2023-03-26T02:39:54;12.70;75.39
75380;HTU21D;65641;44.714;37.756;2023-03-26T02:41:05;12.69;75.39
75380;HTU21D;65641;44.714;37.756;2023-03-26T02:42:23;12.71;75.39
75380;HTU21D;65641;44.714;37.756;2023-03-26T02:43:27;12.70;75.38
75380;HTU21D;65641;44.714;37.756;2023-03-26T02:44:30;12.71;75.39
75380;HTU21D;65641;44.714;37.756;2023-03-26T02:45:33;12.70;75.37
75380;HTU21D;65641;44.714;37.756;2023-03-26T02:46:41;12.71;75.36
75380;HTU21D;65641;44.714;37.756;2023-03-26T02:48:04;12.71;75.36
75380;HTU21D;65641;44.714;37.756;2023-03-26T02:49:22;12.71;75.35
75380;HTU21D;65641;44.714;37.756;2023-03-26T02:50:25;12.71;75.34
75380;HTU21D;65641;44.714;37.756;2023-03-26T02:51:46;12.71;75.34
75380;HTU21D;65641;44.714;37.756;2023-03-26T02:52:59;12.72;75.34
75380;HTU21D;65641;44.714;37.756;2023-03-26T02:54:06;12.71;75.31
75380;HTU21D;65641;44.714;37.756;2023-03-26T02:55:08;12.71;75.31
75380;HTU21D;65641;44.714;37.756;2023-03-26T02:56:13;12.71;75.32
75380;HTU21D;65641;44.714;37.756;2023-03-26T02:57:28;12.71;75.31
75380;HTU21D;65641;44.714;37.756;2023-03-26T02:58:48;12.71;75.29
75380;HTU21D;65641;44.714;37.756;2023-03-26T02:59:52;12.72;75.29
75380;HTU21D;65641;44.714;37.756;2023-03-26T03:01:10;12.72;75.27
75380;HTU21D;65641;44.714;37.756;2023-03-26T03:02:23;12.71;75.24
75380;HTU21D;65641;44.714;37.756;2023-03-26T03:03:31;12.73;75.25
75380;HTU21D;65641;44.714;37.756;2023-03-26T03:04:33;12.71;75.23
75380;HTU21D;65641;44.714;37.756;2023-03-26T03:05:36;12.72;75.25
75380;HTU21D;65641;44.714;37.756;2023-03-26T03:07:02;12.71;75.21
75380;HTU21D;65641;44.714;37.756;2023-03-26T03:08:05;12.72;75.22
75380;HTU21D;65641;44.714;37.756;2023-03-26T03:09:11;12.72;75.18
75380;HTU21D;65641;44.714;37.756;2023-03-26T03:10:34;12.72;75.18
75380;HTU21D;65641;44.714;37.756;2023-03-26T03:11:53;12.71;75.18
75380;HTU21D;65641;44.714;37.756;2023-03-26T03:12:56;12.71;75.18
75380;HTU21D;65641;44.714;37.756;2023-03-26T03:13:59;12.71;75.17
75380;HTU21D;65641;44.714;37.756;2023-03-26T03:15:04;12.72;75.16
75380;HTU21D;65641;44.714;37.756;2023-03-26T03:16:07;12.70;75.17
75380;HTU21D;65641;44.714;37.756;2023-03-26T03:17:10;12.72;75.16
75380;HTU21D;65641;44.714;37.756;2023-03-26T03:18:15;12.72;75.15
75380;HTU21D;65641;44.714;37.756;2023-03-26T03:19:18;12.72;75.15
75380;HTU21D;65641;44.714;37.756;2023-03-26T03:20:22;12.72;75.15
75380;HTU21D;65641;44.714;37.756;2023-03-26T03:21:26;12.72;75.15
75380;HTU21D;65641;44.714;37.756;2023-03-26T03:22:30;12.71;75.17
75380;HTU21D;65641;44.714;37.756;2023-03-26T03:23:32;12.70;75.16
75380;HTU21D;65641;44.714;37.756;2023-03-26T03:24:43;12.70;75.17
75380;HTU21D;65641;44.714;37.756;2023-03-26T03:25:46;12.70;75.18
75380;HTU21D;65641;44.714;37.756;2023-03-26T03:26:50;12.71;75.16
75380;HTU21D;65641;44.714;37.756;2023-03-26T03:28:31;12.71;75.16
75380;HTU21D;65641;44.714;37.756;2023-03-26T03:29:34;12.71;75.19
75380;HTU21D;65641;44.714;37.756;2023-03-26T03:31:13;12.72;75.18
75380;HTU21D;65641;44.714;37.756;2023-03-26T03:32:15;12.72;75.16
75380;HTU21D;65641;44.714;37.756;2023-03-26T03:33:22;12.72;75.15
75380;HTU21D;65641;44.714;37.756;2023-03-26T03:34:26;12.73;75.14
75380;HTU21D;65641;44.714;37.756;2023-03-26T03:35:29;12.73;75.14
75380;HTU21D;65641;44.714;37.756;2023-03-26T03:36:33;12.73;75.13
75380;HTU21D;65641;44.714;37.756;2023-03-26T03:37:57;12.73;75.12
75380;HTU21D;65641;44.714;37.756;2023-03-26T03:39:01;12.73;75.10
75380;HTU21D;65641;44.714;37.756;2023-03-26T03:40:06;12.73;75.09
75380;HTU21D;65641;44.714;37.756;2023-03-26T03:41:13;12.72;75.08
75380;HTU21D;65641;44.714;37.756;2023-03-26T03:42:17;12.73;75.05
75380;HTU21D;65641;44.714;37.756;2023-03-26T03:43:21;12.73;75.06
75380;HTU21D;65641;44.714;37.756;2023-03-26T03:44:41;12.74;75.04
75380;HTU21D;65641;44.714;37.756;2023-03-26T03:45:56;12.74;75.02
75380;HTU21D;65641;44.714;37.756;2023-03-26T03:47:08;12.74;75.01
75380;HTU21D;65641;44.714;37.756;2023-03-26T03:48:32;12.73;75.02
75380;HTU21D;65641;44.714;37.756;2023-03-26T03:50:01;12.75;75.00
75380;HTU21D;65641;44.714;37.756;2023-03-26T03:51:05;12.75;74.99
75380;HTU21D;65641;44.714;37.756;2023-03-26T03:52:28;12.74;74.98
75380;HTU21D;65641;44.714;37.756;2023-03-26T03:53:32;12.76;74.96
75380;HTU21D;65641;44.714;37.756;2023-03-26T03:54:39;12.74;74.96
75380;HTU21D;65641;44.714;37.756;2023-03-26T03:55:57;12.75;74.96
75380;HTU21D;65641;44.714;37.756;2023-03-26T03:57:14;12.74;74.94
75380;HTU21D;65641;44.714;37.756;2023-03-26T03:58:26;12.74;74.93
75380;HTU21D;65641;44.714;37.756;2023-03-26T03:59:35;12.75;74.93
75380;HTU21D;65641;44.714;37.756;2023-03-26T04:00:52;12.75;74.92
75380;HTU21D;65641;44.714;37.756;2023-03-26T04:02:15;12.75;74.91
75380;HTU21D;65641;44.714;37.756;2023-03-26T04:03:32;12.75;74.90
75380;HTU21D;65641;44.714;37.756;2023-03-26T04:04:45;12.74;74.92
75380;HTU21D;65641;44.714;37.756;2023-03-26T04:05:55;12.75;74.90
75380;HTU21D;65641;44.714;37.756;2023-03-26T04:07:00;12.75;74.89
75380;HTU21D;65641;44.714;37.756;2023-03-26T04:08:26;12.76;74.89
75380;HTU21D;65641;44.714;37.756;2023-03-26T04:09:30;12.76;74.87
75380;HTU21D;65641;44.714;37.756;2023-03-26T04:10:38;12.76;74.87
75380;HTU21D;65641;44.714;37.756;2023-03-26T04:11:47;12.76;74.85
75380;HTU21D;65641;44.714;37.756;2023-03-26T04:13:38;12.77;74.81
75380;HTU21D;65641;44.714;37.756;2023-03-26T04:15:00;12.75;74.81
75380;HTU21D;65641;44.714;37.756;2023-03-26T04:16:04;12.76;74.82
75380;HTU21D;65641;44.714;37.756;2023-03-26T04:17:08;12.76;74.82
75380;HTU21D;65641;44.714;37.756;2023-03-26T04:18:12;12.76;74.85
75380;HTU21D;65641;44.714;37.756;2023-03-26T04:19:18;12.76;74.86
75380;HTU21D;65641;44.714;37.756;2023-03-26T04:20:21;12.76;74.85
75380;HTU21D;65641;44.714;37.756;2023-03-26T04:21:25;12.77;74.84
75380;HTU21D;65641;44.714;37.756;2023-03-26T04:22:32;12.78;74.85
75380;HTU21D;65641;44.714;37.756;2023-03-26T04:23:38;12.79;74.86
75380;HTU21D;65641;44.714;37.756;2023-03-26T04:24:53;12.79;74.86
75380;HTU21D;65641;44.714;37.756;2023-03-26T04:26:06;12.79;74.86
75380;HTU21D;65641;44.714;37.756;2023-03-26T04:27:35;12.81;74.83
75380;HTU21D;65641;44.714;37.756;2023-03-26T04:30:20;12.82;74.80
75380;HTU21D;65641;44.714;37.756;2023-03-26T04:31:29;12.84;74.74
75380;HTU21D;65641;44.714;37.756;2023-03-26T04:32:34;12.85;74.71
75380;HTU21D;65641;44.714;37.756;2023-03-26T04:33:37;12.86;74.69
75380;HTU21D;65641;44.714;37.756;2023-03-26T04:35:03;12.86;74.68
75380;HTU21D;65641;44.714;37.756;2023-03-26T04:36:08;12.86;74.68
75380;HTU21D;65641;44.714;37.756;2023-03-26T04:37:19;12.88;74.70
75380;HTU21D;65641;44.714;37.756;2023-03-26T04:38:39;12.89;74.68
75380;HTU21D;65641;44.714;37.756;2023-03-26T04:40:07;12.91;74.62
75380;HTU21D;65641;44.714;37.756;2023-03-26T04:41:34;12.93;74.62
75380;HTU21D;65641;44.714;37.756;2023-03-26T04:42:40;12.93;74.59
75380;HTU21D;65641;44.714;37.756;2023-03-26T04:44:03;12.96;74.57
75380;HTU21D;65641;44.714;37.756;2023-03-26T04:45:14;12.99;74.55
75380;HTU21D;65641;44.714;37.756;2023-03-26T04:46:21;13.00;74.52
75380;HTU21D;65641;44.714;37.756;2023-03-26T04:47:38;13.02;74.44
75380;HTU21D;65641;44.714;37.756;2023-03-26T04:48:42;13.03;74.36
75380;HTU21D;65641;44.714;37.756;2023-03-26T04:49:46;13.04;74.28
75380;HTU21D;65641;44.714;37.756;2023-03-26T04:50:51;13.05;74.23
75380;HTU21D;65641;44.714;37.756;2023-03-26T04:51:55;13.06;74.12
75380;HTU21D;65641;44.714;37.756;2023-03-26T04:53:18;13.08;74.09
75380;HTU21D;65641;44.714;37.756;2023-03-26T04:54:52;13.10;74.06
75380;HTU21D;65641;44.714;37.756;2023-03-26T04:56:16;13.11;74.02
75380;HTU21D;65641;44.714;37.756;2023-03-26T04:57:41;13.12;73.96
75380;HTU21D;65641;44.714;37.756;2023-03-26T04:59:03;13.15;73.97
75380;HTU21D;65641;44.714;37.756;2023-03-26T05:00:13;13.17;73.96
75380;HTU21D;65641;44.714;37.756;2023-03-26T05:01:22;13.18;73.93
75380;HTU21D;65641;44.714;37.756;2023-03-26T05:02:27;13.19;73.89
75380;HTU21D;65641;44.714;37.756;2023-03-26T05:03:30;13.19;73.86
75380;HTU21D;65641;44.714;37.756;2023-03-26T05:04:40;13.22;73.80
75380;HTU21D;65641;44.714;37.756;2023-03-26T05:05:45;13.24;73.77
75380;HTU21D;65641;44.714;37.756;2023-03-26T05:06:52;13.24;73.77
75380;HTU21D;65641;44.714;37.756;2023-03-26T05:08:10;13.29;73.71
75380;HTU21D;65641;44.714;37.756;2023-03-26T05:09:14;13.29;73.65
75380;HTU21D;65641;44.714;37.756;2023-03-26T05:10:39;13.31;73.56
75380;HTU21D;65641;44.714;37.756;2023-03-26T05:11:47;13.32;73.48
75380;HTU21D;65641;44.714;37.756;2023-03-26T05:12:52;13.32;73.41
75380;HTU21D;65641;44.714;37.756;2023-03-26T05:14:05;13.35;73.35
75380;HTU21D;65641;44.714;37.756;2023-03-26T05:15:12;13.35;73.33
75380;HTU21D;65641;44.714;37.756;2023-03-26T05:16:33;13.36;73.30
75380;HTU21D;65641;44.714;37.756;2023-03-26T05:17:42;13.38;73.27
75380;HTU21D;65641;44.714;37.756;2023-03-26T05:18:54;13.38;73.22
75380;HTU21D;65641;44.714;37.756;2023-03-26T05:19:58;13.40;73.21
75380;HTU21D;65641;44.714;37.756;2023-03-26T05:21:02;13.41;73.22
75380;HTU21D;65641;44.714;37.756;2023-03-26T05:22:06;13.43;73.30
75380;HTU21D;65641;44.714;37.756;2023-03-26T05:23:13;13.45;73.31
75380;HTU21D;65641;44.714;37.756;2023-03-26T05:24:19;13.46;73.27
75380;HTU21D;65641;44.714;37.756;2023-03-26T05:25:22;13.48;73.20
75380;HTU21D;65641;44.714;37.756;2023-03-26T05:26:25;13.48;73.19
75380;HTU21D;65641;44.714;37.756;2023-03-26T05:27:28;13.49;73.12
75380;HTU21D;65641;44.714;37.756;2023-03-26T05:28:31;13.52;73.08
75380;HTU21D;65641;44.714;37.756;2023-03-26T05:29:42;13.53;73.03
75380;HTU21D;65641;44.714;37.756;2023-03-26T05:30:45;13.54;72.96
75380;HTU21D;65641;44.714;37.756;2023-03-26T05:31:50;13.56;72.90
75380;HTU21D;65641;44.714;37.756;2023-03-26T05:32:53;13.58;72.86
75380;HTU21D;65641;44.714;37.756;2023-03-26T05:34:01;13.59;72.84
75380;HTU21D;65641;44.714;37.756;2023-03-26T05:35:05;13.61;72.85
75380;HTU21D;65641;44.714;37.756;2023-03-26T05:36:10;13.62;72.84
75380;HTU21D;65641;44.714;37.756;2023-03-26T05:37:31;13.63;72.80
75380;HTU21D;65641;44.714;37.756;2023-03-26T05:38:38;13.64;72.79
75380;HTU21D;65641;44.714;37.756;2023-03-26T05:39:43;13.65;72.76
75380;HTU21D;65641;44.714;37.756;2023-03-26T05:41:11;13.68;72.71
75380;HTU21D;65641;44.714;37.756;2023-03-26T05:42:17;13.70;72.67
75380;HTU21D;65641;44.714;37.756;2023-03-26T05:43:42;13.71;72.59
75380;HTU21D;65641;44.714;37.756;2023-03-26T05:44:50;13.74;72.54
75380;HTU21D;65641;44.714;37.756;2023-03-26T05:45:58;13.76;72.48
75380;HTU21D;65641;44.714;37.756;2023-03-26T05:47:04;13.77;72.41
75380;HTU21D;65641;44.714;37.756;2023-03-26T05:48:08;13.78;72.34
75380;HTU21D;65641;44.714;37.756;2023-03-26T05:49:13;13.80;72.32
75380;HTU21D;65641;44.714;37.756;2023-03-26T05:50:16;13.81;72.31
75380;HTU21D;65641;44.714;37.756;2023-03-26T05:51:20;13.82;72.28
75380;HTU21D;65641;44.714;37.756;2023-03-26T05:52:35;13.84;72.25
75380;HTU21D;65641;44.714;37.756;2023-03-26T05:53:56;13.85;72.20
75380;HTU21D;65641;44.714;37.756;2023-03-26T05:54:59;13.86;72.18
75380;HTU21D;65641;44.714;37.756;2023-03-26T05:56:20;13.89;72.13
75380;HTU21D;65641;44.714;37.756;2023-03-26T05:57:44;13.90;72.10
75380;HTU21D;65641;44.714;37.756;2023-03-26T05:59:25;13.93;72.09
75380;HTU21D;65641;44.714;37.756;2023-03-26T06:01:05;13.93;71.99
75380;HTU21D;65641;44.714;37.756;2023-03-26T06:02:35;13.96;71.90
75380;HTU21D;65641;44.714;37.756;2023-03-26T06:04:07;13.96;71.88
75380;HTU21D;65641;44.714;37.756;2023-03-26T06:05:15;13.97;71.90
75380;HTU21D;65641;44.714;37.756;2023-03-26T06:06:36;13.99;71.89
75380;HTU21D;65641;44.714;37.756;2023-03-26T06:07:59;14.00;71.84
75380;HTU21D;65641;44.714;37.756;2023-03-26T06:09:13;14.01;71.86
75380;HTU21D;65641;44.714;37.756;2023-03-26T06:10:17;14.04;71.84
75380;HTU21D;65641;44.714;37.756;2023-03-26T06:11:20;14.04;71.82
75380;HTU21D;65641;44.714;37.756;2023-03-26T06:12:23;14.05;71.76
75380;HTU21D;65641;44.714;37.756;2023-03-26T06:13:26;14.05;71.70
75380;HTU21D;65641;44.714;37.756;2023-03-26T06:14:30;14.06;71.64
75380;HTU21D;65641;44.714;37.756;2023-03-26T06:15:59;14.07;71.58
75380;HTU21D;65641;44.714;37.756;2023-03-26T06:17:08;14.06;71.55
75380;HTU21D;65641;44.714;37.756;2023-03-26T06:18:31;14.07;71.53
75380;HTU21D;65641;44.714;37.756;2023-03-26T06:19:54;14.06;71.53
75380;HTU21D;65641;44.714;37.756;2023-03-26T06:21:06;14.06;71.55
75380;HTU21D;65641;44.714;37.756;2023-03-26T06:22:20;14.07;71.61
75380;HTU21D;65641;44.714;37.756;2023-03-26T06:23:58;14.08;71.64
75380;HTU21D;65641;44.714;37.756;2023-03-26T06:25:13;14.08;71.62
75380;HTU21D;65641;44.714;37.756;2023-03-26T06:26:28;14.07;71.62
75380;HTU21D;65641;44.714;37.756;2023-03-26T06:27:50;14.08;71.64
75380;HTU21D;65641;44.714;37.756;2023-03-26T06:29:13;14.07;71.64
75380;HTU21D;65641;44.714;37.756;2023-03-26T06:30:22;14.09;71.69
75380;HTU21D;65641;44.714;37.756;2023-03-26T06:31:35;14.08;71.76
75380;HTU21D;65641;44.714;37.756;2023-03-26T06:32:57;14.10;71.82
75380;HTU21D;65641;44.714;37.756;2023-03-26T06:34:03;14.10;71.84
75380;HTU21D;65641;44.714;37.756;2023-03-26T06:35:07;14.12;71.85
75380;HTU21D;65641;44.714;37.756;2023-03-26T06:36:10;14.13;71.86
75380;HTU21D;65641;44.714;37.756;2023-03-26T06:37:13;14.14;71.90
75380;HTU21D;65641;44.714;37.756;2023-03-26T06:38:17;14.15;71.92
75380;HTU21D;65641;44.714;37.756;2023-03-26T06:39:20;14.17;71.90
75380;HTU21D;65641;44.714;37.756;2023-03-26T06:41:04;14.21;71.79
75380;HTU21D;65641;44.714;37.756;2023-03-26T06:42:13;14.21;71.72
75380;HTU21D;65641;44.714;37.756;2023-03-26T06:43:22;14.23;71.65
75380;HTU21D;65641;44.714;37.756;2023-03-26T06:44:54;14.25;71.53
75380;HTU21D;65641;44.714;37.756;2023-03-26T06:46:26;14.26;71.43
75380;HTU21D;65641;44.714;37.756;2023-03-26T06:47:47;14.26;71.37
75380;HTU21D;65641;44.714;37.756;2023-03-26T06:49:17;14.29;71.34
75380;HTU21D;65641;44.714;37.756;2023-03-26T06:50:39;14.30;71.35
75380;HTU21D;65641;44.714;37.756;2023-03-26T06:52:00;14.32;71.35
75380;HTU21D;65641;44.714;37.756;2023-03-26T06:53:21;14.33;71.33
75380;HTU21D;65641;44.714;37.756;2023-03-26T06:54:33;14.35;71.31
75380;HTU21D;65641;44.714;37.756;2023-03-26T06:55:59;14.35;71.29
75380;HTU21D;65641;44.714;37.756;2023-03-26T06:57:25;14.37;71.26
75380;HTU21D;65641;44.714;37.756;2023-03-26T06:58:56;14.36;71.22
75380;HTU21D;65641;44.714;37.756;2023-03-26T07:00:18;14.38;71.21
75380;HTU21D;65641;44.714;37.756;2023-03-26T07:01:40;14.41;71.21
75380;HTU21D;65641;44.714;37.756;2023-03-26T07:03:03;14.41;71.27
75380;HTU21D;65641;44.714;37.756;2023-03-26T07:04:41;14.43;71.32
75380;HTU21D;65641;44.714;37.756;2023-03-26T07:06:04;14.47;71.26
75380;HTU21D;65641;44.714;37.756;2023-03-26T07:07:25;14.49;71.20
75380;HTU21D;65641;44.714;37.756;2023-03-26T07:08:47;14.51;71.03
75380;HTU21D;65641;44.714;37.756;2023-03-26T07:10:01;14.50;70.93
75380;HTU21D;65641;44.714;37.756;2023-03-26T07:11:36;14.52;70.87
75380;HTU21D;65641;44.714;37.756;2023-03-26T07:13:02;14.55;70.86
75380;HTU21D;65641;44.714;37.756;2023-03-26T07:14:25;14.55;70.84
75380;HTU21D;65641;44.714;37.756;2023-03-26T07:15:42;14.58;70.83
75380;HTU21D;65641;44.714;37.756;2023-03-26T07:17:05;14.59;70.79
75380;HTU21D;65641;44.714;37.756;2023-03-26T07:18:26;14.59;70.74
75380;HTU21D;65641;44.714;37.756;2023-03-26T07:19:30;14.60;70.71
75380;HTU21D;65641;44.714;37.756;2023-03-26T07:20:37;14.62;70.71
75380;HTU21D;65641;44.714;37.756;2023-03-26T07:21:40;14.64;70.71
75380;HTU21D;65641;44.714;37.756;2023-03-26T07:22:57;14.65;70.70
75380;HTU21D;65641;44.714;37.756;2023-03-26T07:24:30;14.66;70.62
75380;HTU21D;65641;44.714;37.756;2023-03-26T07:25:43;14.67;70.60
75380;HTU21D;65641;44.714;37.756;2023-03-26T07:26:59;14.67;70.63